createdAt,value
2023-11-27T00:01:03.496Z,99613.40
2023-11-27T00:03:33.400Z,99607.40
2023-11-27T00:06:01.517Z,99613.40
2023-11-27T00:08:29.268Z,99618.80
2023-11-27T00:10:59.388Z,99618.40
2023-11-27T00:13:28.489Z,99622.60
2023-11-27T00:15:56.283Z,99621.20
2023-11-27T00:18:24.022Z,99628.00
2023-11-27T00:20:53.040Z,99631.80
2023-11-27T00:23:20.719Z,99632.40
2023-11-27T00:25:48.416Z,99631.60
2023-11-27T00:28:16.127Z,99633.80
2023-11-27T00:30:44.010Z,99629.20
2023-11-27T00:33:11.872Z,99630.20
2023-11-27T00:35:39.647Z,99629.80
2023-11-27T00:38:07.418Z,99631.00
2023-11-27T00:40:35.131Z,99633.40
2023-11-27T00:43:05.420Z,99628.00
2023-11-27T00:45:33.685Z,99630.80
2023-11-27T00:48:01.836Z,99629.20
2023-11-27T00:50:29.653Z,99624.60
2023-11-27T00:52:57.327Z,99623.60
2023-11-27T00:55:25.802Z,99620.20
2023-11-27T00:57:53.535Z,99621.40
2023-11-27T01:00:22.426Z,99617.40
2023-11-27T01:02:53.706Z,99616.60
2023-11-27T01:05:21.637Z,99611.00
2023-11-27T01:07:49.382Z,99608.40
2023-11-27T01:10:18.596Z,99609.20
2023-11-27T01:12:48.950Z,99609.20
2023-11-27T01:15:18.778Z,99612.00
2023-11-27T01:17:46.560Z,99608.40
2023-11-27T01:20:14.289Z,99611.20
2023-11-27T01:22:42.027Z,99612.60
2023-11-27T01:25:11.408Z,99609.60
2023-11-27T01:27:40.077Z,99606.20
2023-11-27T01:30:08.623Z,99605.20
2023-11-27T01:32:36.372Z,99604.20
2023-11-27T01:35:04.568Z,99598.60
2023-11-27T01:37:32.237Z,99596.00
2023-11-27T01:39:59.984Z,99595.00
2023-11-27T01:42:28.300Z,99591.20
2023-11-27T01:44:56.071Z,99596.00
2023-11-27T01:47:26.353Z,99592.40
2023-11-27T01:49:54.623Z,99591.80
2023-11-27T01:52:23.018Z,99588.60
2023-11-27T01:54:50.800Z,99591.60
2023-11-27T01:57:21.473Z,99585.40
2023-11-27T01:59:50.629Z,99585.20
2023-11-27T02:02:18.823Z,99586.80
2023-11-27T02:04:46.618Z,99583.00
2023-11-27T02:07:14.751Z,99578.40
2023-11-27T02:09:42.474Z,99572.00
2023-11-27T02:12:10.933Z,99572.60
2023-11-27T02:14:38.632Z,99569.80
2023-11-27T02:17:06.351Z,99559.00
2023-11-27T02:19:34.458Z,99565.80
2023-11-27T02:22:02.206Z,99564.40
2023-11-27T02:24:30.496Z,99568.20
2023-11-27T02:26:58.178Z,99561.60
2023-11-27T02:29:26.628Z,99562.00
2023-11-27T02:31:54.483Z,99565.00
2023-11-27T02:34:22.350Z,99566.60
2023-11-27T02:36:50.044Z,99560.00
2023-11-27T02:39:18.496Z,99564.40
2023-11-27T02:41:46.194Z,99570.00
2023-11-27T02:44:14.070Z,99568.40
2023-11-27T02:46:44.815Z,99568.00
2023-11-27T02:49:14.525Z,99567.40
2023-11-27T02:51:42.340Z,99564.40
2023-11-27T02:54:11.310Z,99567.20
2023-11-27T02:56:39.176Z,99563.80
2023-11-27T02:59:06.937Z,99564.60
2023-11-27T03:01:34.931Z,99567.40
2023-11-27T03:04:02.771Z,99562.80
2023-11-27T03:06:30.650Z,99559.20
2023-11-27T03:08:58.958Z,99563.40
2023-11-27T03:11:26.644Z,99562.40
2023-11-27T03:13:54.824Z,99557.80
2023-11-27T03:16:22.544Z,99558.20
2023-11-27T03:18:50.272Z,99559.80
2023-11-27T03:21:22.207Z,99557.00
2023-11-27T03:23:49.948Z,99558.80
2023-11-27T03:26:19.054Z,99557.40
2023-11-27T03:28:46.781Z,99556.00
2023-11-27T03:31:14.578Z,99556.40
2023-11-27T03:33:43.445Z,99555.80
2023-11-27T03:36:11.562Z,99556.40
2023-11-27T03:38:39.328Z,99553.00
2023-11-27T03:41:07.204Z,99557.60
2023-11-27T03:43:34.872Z,99564.00
2023-11-27T03:46:02.821Z,99551.40
2023-11-27T03:48:30.547Z,99551.80
2023-11-27T03:50:58.245Z,99554.40
2023-11-27T03:53:28.224Z,99549.80
2023-11-27T03:55:56.109Z,99548.80
2023-11-27T03:58:23.872Z,99546.60
2023-11-27T04:00:51.674Z,99544.60
2023-11-27T04:03:20.225Z,99548.40
2023-11-27T04:05:48.553Z,99551.60
2023-11-27T04:08:16.337Z,99547.40
2023-11-27T04:10:44.031Z,99542.80
2023-11-27T04:13:12.040Z,99547.20
2023-11-27T04:15:39.929Z,99549.00
2023-11-27T04:18:07.982Z,99547.40
2023-11-27T04:20:35.653Z,99546.20
2023-11-27T04:23:03.478Z,99544.60
2023-11-27T04:25:31.640Z,99539.60
2023-11-27T04:27:59.878Z,99540.40
2023-11-27T04:30:28.204Z,99540.20
2023-11-27T04:32:56.611Z,99533.00
2023-11-27T04:35:24.549Z,99534.40
2023-11-27T04:37:52.658Z,99532.40
2023-11-27T04:40:20.461Z,99534.00
2023-11-27T04:42:48.212Z,99537.40
2023-11-27T04:45:15.975Z,99533.80
2023-11-27T04:47:43.736Z,99532.00
2023-11-27T04:50:11.414Z,99533.60
2023-11-27T04:52:39.093Z,99525.20
2023-11-27T04:55:07.256Z,99532.60
2023-11-27T04:57:34.961Z,99529.60
2023-11-27T05:00:04.146Z,99532.00
2023-11-27T05:02:31.892Z,99531.40
2023-11-27T05:04:59.654Z,99527.20
2023-11-27T05:07:27.378Z,99533.00
2023-11-27T05:09:55.134Z,99531.80
2023-11-27T05:12:27.246Z,99529.80
2023-11-27T05:15:01.441Z,99529.80
2023-11-27T05:17:29.259Z,99533.80
2023-11-27T05:19:57.260Z,99531.80
2023-11-27T05:22:25.142Z,99530.00
2023-11-27T05:24:53.000Z,99534.20
2023-11-27T05:27:21.495Z,99535.60
2023-11-27T05:29:49.184Z,99537.00
2023-11-27T05:32:18.181Z,99538.40
2023-11-27T05:34:45.894Z,99538.80
2023-11-27T05:37:13.840Z,99541.40
2023-11-27T05:39:42.526Z,99538.40
2023-11-27T05:42:13.393Z,99540.60
2023-11-27T05:44:41.685Z,99539.40
2023-11-27T05:47:11.625Z,99538.00
2023-11-27T05:49:40.095Z,99540.60
2023-11-27T05:52:08.379Z,99543.20
2023-11-27T05:54:36.093Z,99543.40
2023-11-27T05:57:03.777Z,99544.20
2023-11-27T05:59:31.643Z,99549.60
2023-11-27T06:01:59.463Z,99547.40
2023-11-27T06:04:28.129Z,99549.80
2023-11-27T06:06:56.001Z,99549.40
2023-11-27T06:09:23.756Z,99554.80
2023-11-27T06:11:51.507Z,99562.40
2023-11-27T06:14:19.224Z,99563.40
2023-11-27T06:16:47.050Z,99550.80
2023-11-27T06:19:14.970Z,99555.40
2023-11-27T06:21:42.959Z,99560.20
2023-11-27T06:24:10.679Z,99556.60
2023-11-27T06:26:38.392Z,99560.20
2023-11-27T06:29:06.093Z,99556.00
2023-11-27T06:31:33.862Z,99558.40
2023-11-27T06:34:02.076Z,99551.00
2023-11-27T06:36:29.811Z,99560.00
2023-11-27T06:38:57.510Z,99555.80
2023-11-27T06:41:26.627Z,99559.00
2023-11-27T06:43:54.407Z,99564.60
2023-11-27T06:46:22.158Z,99554.40
2023-11-27T06:48:51.447Z,99563.00
2023-11-27T06:51:19.266Z,99554.60
2023-11-27T06:53:47.101Z,99561.00
2023-11-27T06:56:14.900Z,99568.40
2023-11-27T06:58:42.725Z,99569.20
2023-11-27T07:01:13.775Z,99567.20
2023-11-27T07:03:41.970Z,99568.60
2023-11-27T07:06:10.318Z,99566.20
2023-11-27T07:08:38.506Z,99569.60
2023-11-27T07:11:06.792Z,99569.20
2023-11-27T07:13:35.501Z,99566.40
2023-11-27T07:16:03.687Z,99571.40
2023-11-27T07:18:34.375Z,99569.80
2023-11-27T07:21:02.610Z,99571.40
2023-11-27T07:23:30.784Z,99575.60
2023-11-27T07:25:58.761Z,99570.80
2023-11-27T07:28:27.414Z,99574.60
2023-11-27T07:30:56.109Z,99573.40
2023-11-27T07:33:25.363Z,99574.60
2023-11-27T07:35:54.560Z,99580.20
2023-11-27T07:38:22.392Z,99575.60
2023-11-27T07:40:50.172Z,99572.80
2023-11-27T07:43:17.959Z,99575.40
2023-11-27T07:45:46.321Z,99572.00
2023-11-27T07:48:14.152Z,99574.00
2023-11-27T07:50:42.100Z,99574.40
2023-11-27T07:53:11.089Z,99573.40
2023-11-27T07:55:38.906Z,99576.60
2023-11-27T07:58:06.971Z,99575.80
2023-11-27T08:00:35.128Z,99574.00
2023-11-27T08:03:02.998Z,99574.80
2023-11-27T08:05:31.205Z,99570.60
2023-11-27T08:07:59.168Z,99571.00
2023-11-27T08:10:27.557Z,99568.60
2023-11-27T08:12:55.689Z,99565.80
2023-11-27T08:15:23.454Z,99565.20
2023-11-27T08:17:51.435Z,99573.60
2023-11-27T08:20:19.229Z,99577.20
2023-11-27T08:22:48.236Z,99576.80
2023-11-27T08:25:18.273Z,99575.40
2023-11-27T08:27:48.340Z,99575.20
2023-11-27T08:30:18.795Z,99580.60
2023-11-27T08:32:47.857Z,99577.60
2023-11-27T08:35:15.686Z,99578.00
2023-11-27T08:37:43.471Z,99576.20
2023-11-27T08:40:14.120Z,99575.80
2023-11-27T08:42:42.247Z,99565.00
2023-11-27T08:45:20.725Z,99569.80
2023-11-27T08:47:52.954Z,99565.20
2023-11-27T08:50:26.272Z,99566.20
2023-11-27T08:52:59.865Z,99573.00
2023-11-27T08:55:31.090Z,99567.20
2023-11-27T08:58:02.595Z,99570.80
2023-11-27T09:00:33.787Z,99569.80
2023-11-27T09:03:03.146Z,99571.00
2023-11-27T09:05:35.328Z,99570.40
2023-11-27T09:08:07.782Z,99569.80
2023-11-27T09:10:38.106Z,99562.40
2023-11-27T09:13:07.527Z,99555.00
2023-11-27T09:15:35.911Z,99555.00
2023-11-27T09:18:03.826Z,99554.60
2023-11-27T09:20:31.627Z,99557.60
2023-11-27T09:22:59.765Z,99554.20
2023-11-27T09:25:27.746Z,99548.20
2023-11-27T09:27:55.793Z,99545.00
2023-11-27T09:30:23.878Z,99543.20
2023-11-27T09:32:52.657Z,99536.40
2023-11-27T09:35:21.426Z,99540.80
2023-11-27T09:37:49.476Z,99539.20
2023-11-27T09:40:17.698Z,99536.40
2023-11-27T09:42:47.967Z,99529.20
2023-11-27T09:45:18.254Z,99526.40
2023-11-27T09:47:49.819Z,99523.00
2023-11-27T09:50:19.718Z,99523.40
2023-11-27T09:53:07.433Z,99518.60
2023-11-27T09:55:36.363Z,99520.60
2023-11-27T09:58:06.775Z,99533.00
2023-11-27T10:00:35.548Z,99523.40
2023-11-27T10:03:04.488Z,99519.80
2023-11-27T10:05:32.493Z,99520.40
2023-11-27T10:08:00.358Z,99518.00
2023-11-27T10:10:28.656Z,99513.60
2023-11-27T10:13:14.848Z,99518.00
2023-11-27T10:15:50.471Z,99514.60
2023-11-27T10:18:19.965Z,99516.00
2023-11-27T10:20:51.144Z,99514.80
2023-11-27T10:23:19.339Z,99520.60
2023-11-27T10:25:47.146Z,99520.40
2023-11-27T10:28:18.743Z,99517.20
2023-11-27T10:30:49.014Z,99516.20
2023-11-27T10:33:16.864Z,99514.40
2023-11-27T10:35:47.655Z,99511.00
2023-11-27T10:38:17.141Z,99511.60
2023-11-27T10:40:45.025Z,99517.20
2023-11-27T10:43:13.061Z,99511.40
2023-11-27T10:45:41.503Z,99509.00
2023-11-27T10:48:12.175Z,99506.20
2023-11-27T10:50:40.909Z,99502.00
2023-11-27T10:53:09.620Z,99504.20
2023-11-27T10:55:38.436Z,99499.80
2023-11-27T10:58:06.439Z,99494.20
2023-11-27T11:00:40.765Z,99490.80
2023-11-27T11:03:20.490Z,99496.00
2023-11-27T11:05:52.571Z,99496.00
2023-11-27T11:08:28.678Z,99492.40
2023-11-27T11:10:59.391Z,99493.60
2023-11-27T11:13:28.261Z,99488.20
2023-11-27T11:16:15.190Z,99490.20
2023-11-27T11:18:55.882Z,99491.00
2023-11-27T11:21:56.513Z,99493.60
2023-11-27T11:24:45.866Z,99490.40
2023-11-27T11:27:31.507Z,99487.00
2023-11-27T11:29:59.534Z,99487.00
2023-11-27T11:32:30.877Z,99488.60
2023-11-27T11:35:03.798Z,99487.20
2023-11-27T11:37:34.346Z,99489.60
2023-11-27T11:40:04.738Z,99490.80
2023-11-27T11:42:37.508Z,99486.80
2023-11-27T11:45:25.845Z,99488.40
2023-11-27T11:47:58.000Z,99481.00
2023-11-27T11:50:35.172Z,99482.20
2023-11-27T11:53:11.920Z,99476.40
2023-11-27T11:55:40.946Z,99472.20
2023-11-27T11:58:18.494Z,99472.00
2023-11-27T12:00:47.259Z,99470.80
2023-11-27T12:03:22.220Z,99474.40
2023-11-27T12:05:59.055Z,99478.00
2023-11-27T12:08:30.735Z,99477.40
2023-11-27T12:10:59.498Z,99471.20
2023-11-27T12:13:36.079Z,99464.60
2023-11-27T12:16:12.520Z,99464.80
2023-11-27T12:18:45.284Z,99461.20
2023-11-27T12:21:24.660Z,99464.20
2023-11-27T12:23:54.801Z,99462.00
2023-11-27T12:26:25.498Z,99462.80
2023-11-27T12:28:54.786Z,99457.60
2023-11-27T12:31:23.605Z,99461.00
2023-11-27T12:33:52.713Z,99460.40
2023-11-27T12:36:23.831Z,99462.00
2023-11-27T12:38:55.519Z,99464.40
2023-11-27T12:41:33.648Z,99466.00
2023-11-27T12:44:14.719Z,99467.60
2023-11-27T12:46:58.452Z,99468.00
2023-11-27T12:49:35.301Z,99464.40
2023-11-27T12:52:12.285Z,99459.00
2023-11-27T12:54:40.200Z,99464.40
2023-11-27T12:57:10.081Z,99461.60
2023-11-27T12:59:41.694Z,99461.60
2023-11-27T13:02:22.939Z,99456.20
2023-11-27T13:04:55.464Z,99458.60
2023-11-27T13:07:23.821Z,99448.20
2023-11-27T13:09:56.682Z,99449.40
2023-11-27T13:12:27.301Z,99449.20
2023-11-27T13:14:55.305Z,99447.40
2023-11-27T13:17:25.680Z,99447.60
2023-11-27T13:19:54.720Z,99446.60
2023-11-27T13:22:23.896Z,99445.80
2023-11-27T13:24:52.396Z,99439.80
2023-11-27T13:27:24.549Z,99439.80
2023-11-27T13:29:52.576Z,99437.00
2023-11-27T13:32:20.855Z,99435.60
2023-11-27T13:34:58.464Z,99431.60
2023-11-27T13:37:35.878Z,99431.60
2023-11-27T13:40:05.859Z,99429.40
2023-11-27T13:42:34.912Z,99432.20
2023-11-27T13:45:03.613Z,99434.40
2023-11-27T13:47:34.187Z,99434.40
2023-11-27T13:50:02.270Z,99430.20
2023-11-27T13:52:31.816Z,99426.20
2023-11-27T13:55:01.182Z,99430.60
2023-11-27T13:57:30.161Z,99427.20
2023-11-27T13:59:58.407Z,99426.20
2023-11-27T14:02:38.274Z,99433.00
2023-11-27T14:05:07.977Z,99430.80
2023-11-27T14:07:42.153Z,99429.00
2023-11-27T14:10:26.748Z,99429.00
2023-11-27T14:13:16.720Z,99424.80
2023-11-27T14:15:49.058Z,99422.60
2023-11-27T14:18:23.009Z,99425.00
2023-11-27T14:21:00.481Z,99425.40
2023-11-27T14:23:50.479Z,99420.20
2023-11-27T14:26:57.161Z,99426.00
2023-11-27T14:29:28.683Z,99423.40
2023-11-27T14:31:57.028Z,99419.80
2023-11-27T14:34:28.854Z,99421.60
2023-11-27T14:36:56.874Z,99421.20
2023-11-27T14:39:27.450Z,99419.40
2023-11-27T14:41:56.540Z,99422.20
2023-11-27T14:44:24.893Z,99416.20
2023-11-27T14:46:54.860Z,99414.00
2023-11-27T14:49:28.823Z,99411.00
2023-11-27T14:52:05.038Z,99408.80
2023-11-27T14:54:33.673Z,99403.80
2023-11-27T14:57:02.072Z,99404.00
2023-11-27T14:59:29.892Z,99400.20
2023-11-27T15:01:59.877Z,99399.00
2023-11-27T15:04:28.920Z,99393.60
2023-11-27T15:06:56.658Z,99397.00
2023-11-27T15:09:29.593Z,99400.20
2023-11-27T15:11:57.676Z,99393.80
2023-11-27T15:14:27.310Z,99393.80
2023-11-27T15:16:55.320Z,99388.60
2023-11-27T15:19:24.430Z,99386.20
2023-11-27T15:21:57.592Z,99386.60
2023-11-27T15:24:26.005Z,99384.20
2023-11-27T15:26:55.105Z,99383.80
2023-11-27T15:29:29.649Z,99376.80
2023-11-27T15:31:57.623Z,99378.60
2023-11-27T15:34:27.189Z,99377.20
2023-11-27T15:36:56.465Z,99370.00
2023-11-27T15:39:27.685Z,99364.00
2023-11-27T15:41:56.009Z,99361.20
2023-11-27T15:44:23.836Z,99354.80
2023-11-27T15:46:51.728Z,99357.80
2023-11-27T15:49:19.560Z,99360.80
2023-11-27T15:51:47.413Z,99363.20
2023-11-27T15:54:17.709Z,99362.60
2023-11-27T15:56:45.558Z,99358.80
2023-11-27T15:59:14.794Z,99359.00
2023-11-27T16:01:42.747Z,99355.60
2023-11-27T16:04:13.430Z,99355.40
2023-11-27T16:06:41.510Z,99356.20
2023-11-27T16:09:09.614Z,99355.20
2023-11-27T16:11:37.473Z,99354.60
2023-11-27T16:14:09.374Z,99351.40
2023-11-27T16:16:45.512Z,99347.00
2023-11-27T16:21:51.977Z,99339.40
2023-11-27T16:24:19.886Z,99337.20
2023-11-27T16:26:49.635Z,99333.40
2023-11-27T16:29:18.577Z,99339.00
2023-11-27T16:31:46.643Z,99335.20
2023-11-27T16:34:16.215Z,99333.20
2023-11-27T16:36:44.479Z,99333.60
2023-11-27T16:39:14.899Z,99331.00
2023-11-27T16:41:42.873Z,99337.00
2023-11-27T16:44:10.844Z,99333.80
2023-11-27T16:46:39.139Z,99342.20
2023-11-27T16:49:08.104Z,99335.40
2023-11-27T16:51:36.091Z,99338.60
2023-11-27T16:54:04.510Z,99338.80
2023-11-27T16:56:32.410Z,99335.20
2023-11-27T16:59:00.489Z,99333.80
2023-11-27T17:01:29.389Z,99332.80
2023-11-27T17:04:01.386Z,99332.20
2023-11-27T17:06:32.546Z,99329.40
2023-11-27T17:09:00.520Z,99328.00
2023-11-27T17:11:28.465Z,99333.00
2023-11-27T17:13:56.410Z,99333.20
2023-11-27T17:16:24.936Z,99330.40
2023-11-27T17:18:53.715Z,99325.40
2023-11-27T17:21:21.782Z,99322.40
2023-11-27T17:23:49.912Z,99317.60
2023-11-27T17:26:19.492Z,99315.60
2023-11-27T17:28:47.623Z,99310.80
2023-11-27T17:31:17.550Z,99311.20
2023-11-27T17:33:50.928Z,99315.40
2023-11-27T17:36:19.123Z,99308.60
2023-11-27T17:38:47.011Z,99314.00
2023-11-27T17:41:16.541Z,99312.80
2023-11-27T17:43:45.661Z,99309.80
2023-11-27T17:46:14.338Z,99310.60
2023-11-27T17:48:45.090Z,99310.80
2023-11-27T17:51:12.909Z,99312.80
2023-11-27T17:53:42.000Z,99310.40
2023-11-27T17:56:11.059Z,99310.00
2023-11-27T17:58:40.346Z,99309.00
2023-11-27T18:01:09.841Z,99305.40
2023-11-27T18:03:37.798Z,99304.20
2023-11-27T18:06:06.414Z,99299.20
2023-11-27T18:08:35.851Z,99298.80
2023-11-27T18:11:04.260Z,99300.40
2023-11-27T18:13:32.161Z,99300.80
2023-11-27T18:16:00.017Z,99296.00
2023-11-27T18:18:27.870Z,99289.00
2023-11-27T18:20:55.673Z,99289.20
2023-11-27T18:23:23.489Z,99287.60
2023-11-27T18:25:51.691Z,99279.40
2023-11-27T18:28:19.579Z,99280.20
2023-11-27T18:30:47.521Z,99285.60
2023-11-27T18:33:15.694Z,99284.40
2023-11-27T18:35:46.886Z,99279.80
2023-11-27T18:38:16.145Z,99279.20
2023-11-27T18:40:45.340Z,99275.40
2023-11-27T18:43:13.493Z,99278.60
2023-11-27T18:45:42.794Z,99271.40
2023-11-27T18:48:10.662Z,99269.00
2023-11-27T18:50:38.532Z,99268.40
2023-11-27T18:53:06.401Z,99265.00
2023-11-27T18:55:34.657Z,99263.20
2023-11-27T18:58:02.586Z,99264.00
2023-11-27T19:00:30.386Z,99260.60
